Topsail Beach, NC

1:02 AM EDT on September 18, 2014 (GMT -0400)
New River Marine Corps Air Station | Change Station
CLOSE
Current Station
Airport
Location: New River MCAS,
Elevation: 26 ft
Nearby Weather Stations

Elev 26 ft 34.71 °N, 77.44 °W | Updated 6 minutes ago

Clear
Clear
68 °F
Feels Like 68 °F
N
4
Wind Variable Wind from North

Today
High -- | Low -- °F
--% Chance of Precip.
Yesterday
High -- | Low -- °F
Precip. -- in
6:55 AM 7:12 PM
Waning Crescent, 30% visible
Pressure 29.93 in
Visibility 10.0 miles
Clouds Clear
Dew Point 64 °F
Humidity 87%
Rainfall 0.00 in
Snow Depth Not available.
UV 0 out of 12
Pollen 7.10 out of 12
Air Quality Not available.
Flu Activity Not available.
METAR KNCA 180456Z AUTO 01003KT 10SM CLR 20/18 A2992 RMK AO2 SLP135 T02000178 402830200

More Conditions Fewer Conditions

Pressure 29.93 in
Visibility 10.0 miles
Clouds Clear
Dew Point 64 °F
Humidity 87%
Rainfall 0.00 in
Snow Depth Not available.
UV 0 out of 12
Pollen 7.10 out of 12
Air Quality Not available.
Flu Activity Not available.
METAR KNCA 180456Z AUTO 01003KT 10SM CLR 20/18 A2992 RMK AO2 SLP135 T02000178 402830200

More Conditions Fewer Conditions

10-Day Weather Forecast

Almanac

Astronomy

Sep. 18, 2014 Rise Set
Actual Time 6:55 AM EDT 7:12 PM EDT
Civil Twilight 6:30 AM EDT 7:37 PM EDT
Nautical Twilight 6:00 AM EDT 8:07 PM EDT
Astronomical Twilight 5:30 AM EDT 8:36 PM EDT
Moon 1:55 AM EDT 3:53 PM EDT
Length of Visible Light 13h 07m
Length of Day
12h 17m
Tomorrow will be 2m 7s shorter.
Waning Crescent, 30% of the Moon is Illuminated
Today
Waning Crescent
Sep 24
New
Oct 1
First Quarter
Oct 8
Full
Oct 15
Last Quarter

Today's Extremes

State Highs State Lows

Community

WunderPhotos

Upload Photos

1,754,288 photos uploaded!

Nearby

Snow Depth

Station Depth Elevation
No new snow has been reported.

Earthquake Activity

City Distance Mag. Time & Date
No recent earthquake activity has been reported nearby.
Minimum magnitude displayed is 2.5.

Coastal Water Temperatures

Place Temperature
Beaufort, NC 79.0 °F
Johnny Mercer Pier, Wrightsville Beach, NC 82.9 °F
Hatteras, NC 78.1 °F
Oregon Inlet Marina, NC 75.9 °F

Nearby Weather Stations